sensor_id;sensor_type;location;lat;lon;timestamp;pressure;altitude;pressure_sealevel;temperature;humidity
8941;BME280;4505;43.406;23.226;2024-03-29T00:00:59;99377.03;;;17.90;53.28
8941;BME280;4505;43.406;23.226;2024-03-29T00:03:25;99375.78;;;17.82;53.73
8941;BME280;4505;43.406;23.226;2024-03-29T00:05:50;99381.94;;;17.83;53.18
8941;BME280;4505;43.406;23.226;2024-03-29T00:08:16;99380.53;;;17.90;53.28
8941;BME280;4505;43.406;23.226;2024-03-29T00:10:41;99383.69;;;17.92;53.13
8941;BME280;4505;43.406;23.226;2024-03-29T00:13:07;99384.41;;;17.79;56.25
8941;BME280;4505;43.406;23.226;2024-03-29T00:15:34;99378.81;;;17.76;56.36
8941;BME280;4505;43.406;23.226;2024-03-29T00:18:00;99374.63;;;17.88;53.80
8941;BME280;4505;43.406;23.226;2024-03-29T00:20:26;99369.69;;;17.95;53.37
8941;BME280;4505;43.406;23.226;2024-03-29T00:22:54;99375.75;;;18.06;52.27
8941;BME280;4505;43.406;23.226;2024-03-29T00:25:20;99375.28;;;17.99;53.15
8941;BME280;4505;43.406;23.226;2024-03-29T00:27:45;99371.31;;;17.96;53.77
8941;BME280;4505;43.406;23.226;2024-03-29T00:30:11;99375.63;;;17.92;54.13
8941;BME280;4505;43.406;23.226;2024-03-29T00:32:38;99376.22;;;17.89;55.49
8941;BME280;4505;43.406;23.226;2024-03-29T00:35:04;99371.41;;;17.68;58.41
8941;BME280;4505;43.406;23.226;2024-03-29T00:37:30;99375.78;;;17.59;61.10
8941;BME280;4505;43.406;23.226;2024-03-29T00:39:55;99371.34;;;17.49;63.40
8941;BME280;4505;43.406;23.226;2024-03-29T00:42:21;99371.56;;;17.29;65.59
8941;BME280;4505;43.406;23.226;2024-03-29T00:44:46;99378.59;;;17.20;65.91
8941;BME280;4505;43.406;23.226;2024-03-29T00:47:12;99384.31;;;17.13;65.94
8941;BME280;4505;43.406;23.226;2024-03-29T00:49:40;99389.50;;;17.05;67.62
8941;BME280;4505;43.406;23.226;2024-03-29T00:52:05;99388.25;;;16.92;69.28
8941;BME280;4505;43.406;23.226;2024-03-29T00:54:31;99403.00;;;16.95;69.35
8941;BME280;4505;43.406;23.226;2024-03-29T00:56:56;99399.88;;;16.83;72.41
8941;BME280;4505;43.406;23.226;2024-03-29T00:59:22;99397.56;;;16.71;72.09
8941;BME280;4505;43.406;23.226;2024-03-29T01:01:47;99395.34;;;16.45;76.09
8941;BME280;4505;43.406;23.226;2024-03-29T01:04:13;99400.25;;;16.28;77.75
8941;BME280;4505;43.406;23.226;2024-03-29T01:06:40;99396.91;;;16.07;81.68
8941;BME280;4505;43.406;23.226;2024-03-29T01:09:06;99399.88;;;16.01;81.55
8941;BME280;4505;43.406;23.226;2024-03-29T01:11:31;99402.78;;;16.04;80.40
8941;BME280;4505;43.406;23.226;2024-03-29T01:13:57;99403.84;;;16.08;79.19
8941;BME280;4505;43.406;23.226;2024-03-29T01:16:22;99411.09;;;16.03;78.46
8941;BME280;4505;43.406;23.226;2024-03-29T01:18:48;99410.59;;;15.96;79.46
8941;BME280;4505;43.406;23.226;2024-03-29T01:21:13;99411.72;;;15.85;80.82
8941;BME280;4505;43.406;23.226;2024-03-29T01:23:40;99426.22;;;15.73;84.37
8941;BME280;4505;43.406;23.226;2024-03-29T01:26:06;99424.13;;;15.65;86.99
8941;BME280;4505;43.406;23.226;2024-03-29T01:28:32;99426.25;;;15.63;86.21
8941;BME280;4505;43.406;23.226;2024-03-29T01:30:57;99432.19;;;15.50;88.60
8941;BME280;4505;43.406;23.226;2024-03-29T01:33:23;99433.81;;;15.41;90.07
8941;BME280;4505;43.406;23.226;2024-03-29T01:35:49;99448.50;;;15.44;89.95
8941;BME280;4505;43.406;23.226;2024-03-29T01:38:14;99460.28;;;15.38;88.14
8941;BME280;4505;43.406;23.226;2024-03-29T01:40:41;99472.03;;;15.52;85.14
8941;BME280;4505;43.406;23.226;2024-03-29T01:43:07;99461.59;;;15.60;86.21
8941;BME280;4505;43.406;23.226;2024-03-29T01:45:34;99468.78;;;15.75;86.79
8941;BME280;4505;43.406;23.226;2024-03-29T01:48:01;99477.66;;;15.65;85.79
8941;BME280;4505;43.406;23.226;2024-03-29T01:50:29;99482.75;;;15.47;92.81
8941;BME280;4505;43.406;23.226;2024-03-29T01:52:55;99486.22;;;15.37;90.61
8941;BME280;4505;43.406;23.226;2024-03-29T01:55:22;99488.34;;;15.30;91.02
8941;BME280;4505;43.406;23.226;2024-03-29T01:57:50;99493.72;;;15.20;93.60
8941;BME280;4505;43.406;23.226;2024-03-29T02:00:17;99496.66;;;15.09;94.35
8941;BME280;4505;43.406;23.226;2024-03-29T02:02:44;99505.19;;;14.91;97.13
8941;BME280;4505;43.406;23.226;2024-03-29T02:05:11;99518.28;;;14.82;97.33
8941;BME280;4505;43.406;23.226;2024-03-29T02:07:37;99526.03;;;14.74;99.42
8941;BME280;4505;43.406;23.226;2024-03-29T02:10:05;99530.53;;;14.63;100.00
8941;BME280;4505;43.406;23.226;2024-03-29T02:12:33;99529.75;;;14.68;100.00
8941;BME280;4505;43.406;23.226;2024-03-29T02:15:01;99533.22;;;14.68;100.00
8941;BME280;4505;43.406;23.226;2024-03-29T02:17:28;99529.44;;;14.54;100.00
8941;BME280;4505;43.406;23.226;2024-03-29T02:19:54;99530.53;;;14.63;100.00
8941;BME280;4505;43.406;23.226;2024-03-29T02:22:21;99524.16;;;14.79;96.48
8941;BME280;4505;43.406;23.226;2024-03-29T02:24:49;99528.69;;;14.84;96.24
8941;BME280;4505;43.406;23.226;2024-03-29T02:27:16;99538.03;;;14.71;100.00
8941;BME280;4505;43.406;23.226;2024-03-29T02:29:43;99545.53;;;14.74;100.00
8941;BME280;4505;43.406;23.226;2024-03-29T02:32:10;99551.91;;;14.63;100.00
8941;BME280;4505;43.406;23.226;2024-03-29T02:34:36;99568.69;;;14.49;100.00
8941;BME280;4505;43.406;23.226;2024-03-29T02:37:03;99575.38;;;14.46;100.00
8941;BME280;4505;43.406;23.226;2024-03-29T02:39:30;99563.72;;;14.72;100.00
8941;BME280;4505;43.406;23.226;2024-03-29T02:41:58;99568.78;;;14.69;100.00
8941;BME280;4505;43.406;23.226;2024-03-29T02:44:24;99573.03;;;14.65;100.00
8941;BME280;4505;43.406;23.226;2024-03-29T02:46:51;99579.66;;;14.47;100.00
8941;BME280;4505;43.406;23.226;2024-03-29T02:49:17;99578.50;;;14.28;100.00
8941;BME280;4505;43.406;23.226;2024-03-29T02:51:43;99589.59;;;14.15;100.00
8941;BME280;4505;43.406;23.226;2024-03-29T02:54:09;99598.72;;;13.77;100.00
8941;BME280;4505;43.406;23.226;2024-03-29T02:56:35;99601.69;;;13.49;100.00
8941;BME280;4505;43.406;23.226;2024-03-29T02:59:03;99606.47;;;13.79;100.00
8941;BME280;4505;43.406;23.226;2024-03-29T03:01:28;99609.94;;;13.79;100.00
8941;BME280;4505;43.406;23.226;2024-03-29T03:03:55;99609.53;;;13.61;100.00
8941;BME280;4505;43.406;23.226;2024-03-29T03:06:21;99607.00;;;13.44;100.00
8941;BME280;4505;43.406;23.226;2024-03-29T03:08:47;99620.13;;;13.51;100.00
8941;BME280;4505;43.406;23.226;2024-03-29T03:11:31;99628.78;;;13.63;100.00
8941;BME280;4505;43.406;23.226;2024-03-29T03:13:57;99644.72;;;13.58;100.00
8941;BME280;4505;43.406;23.226;2024-03-29T03:16:25;99651.16;;;13.62;100.00
8941;BME280;4505;43.406;23.226;2024-03-29T03:18:51;99660.69;;;13.53;100.00
8941;BME280;4505;43.406;23.226;2024-03-29T03:21:17;99663.34;;;13.53;100.00
8941;BME280;4505;43.406;23.226;2024-03-29T03:23:43;99667.59;;;13.49;100.00
8941;BME280;4505;43.406;23.226;2024-03-29T03:26:09;99664.75;;;13.60;100.00
8941;BME280;4505;43.406;23.226;2024-03-29T03:28:35;99672.94;;;13.49;100.00
8941;BME280;4505;43.406;23.226;2024-03-29T03:31:01;99672.97;;;13.54;100.00
8941;BME280;4505;43.406;23.226;2024-03-29T03:33:28;99675.03;;;13.47;100.00
8941;BME280;4505;43.406;23.226;2024-03-29T03:35:55;99672.59;;;13.19;100.00
8941;BME280;4505;43.406;23.226;2024-03-29T03:38:20;99670.56;;;12.82;100.00
8941;BME280;4505;43.406;23.226;2024-03-29T03:40:47;99690.09;;;12.28;100.00
8941;BME280;4505;43.406;23.226;2024-03-29T03:43:13;99688.38;;;12.39;100.00
8941;BME280;4505;43.406;23.226;2024-03-29T03:45:39;99701.28;;;12.47;100.00
8941;BME280;4505;43.406;23.226;2024-03-29T03:48:05;99697.50;;;12.64;100.00
8941;BME280;4505;43.406;23.226;2024-03-29T03:50:34;99710.09;;;12.69;100.00
8941;BME280;4505;43.406;23.226;2024-03-29T03:53:00;99711.94;;;12.47;100.00
8941;BME280;4505;43.406;23.226;2024-03-29T03:55:26;99709.13;;;12.96;100.00
8941;BME280;4505;43.406;23.226;2024-03-29T03:57:52;99720.72;;;13.29;100.00
8941;BME280;4505;43.406;23.226;2024-03-29T04:00:19;99719.88;;;13.02;100.00
8941;BME280;4505;43.406;23.226;2024-03-29T04:02:46;99716.03;;;13.14;100.00
8941;BME280;4505;43.406;23.226;2024-03-29T04:05:13;99723.59;;;13.01;100.00
8941;BME280;4505;43.406;23.226;2024-03-29T04:07:40;99729.09;;;12.94;100.00
8941;BME280;4505;43.406;23.226;2024-03-29T04:10:07;99729.72;;;13.01;100.00
8941;BME280;4505;43.406;23.226;2024-03-29T04:12:32;99736.78;;;13.12;100.00
8941;BME280;4505;43.406;23.226;2024-03-29T04:14:59;99746.88;;;12.88;100.00
8941;BME280;4505;43.406;23.226;2024-03-29T04:17:24;99746.03;;;13.26;100.00
8941;BME280;4505;43.406;23.226;2024-03-29T04:19:51;99750.44;;;13.64;100.00
8941;BME280;4505;43.406;23.226;2024-03-29T04:22:17;99751.56;;;13.68;100.00
8941;BME280;4505;43.406;23.226;2024-03-29T04:24:45;99761.09;;;13.64;100.00
8941;BME280;4505;43.406;23.226;2024-03-29T04:27:10;99770.97;;;13.63;100.00
8941;BME280;4505;43.406;23.226;2024-03-29T04:29:37;99775.53;;;13.63;100.00
8941;BME280;4505;43.406;23.226;2024-03-29T04:32:05;99789.00;;;13.51;100.00
8941;BME280;4505;43.406;23.226;2024-03-29T04:34:33;99796.72;;;13.26;100.00
8941;BME280;4505;43.406;23.226;2024-03-29T04:36:58;99806.31;;;13.49;100.00
8941;BME280;4505;43.406;23.226;2024-03-29T04:39:25;99811.88;;;13.26;100.00
8941;BME280;4505;43.406;23.226;2024-03-29T04:41:53;99812.50;;;13.11;100.00
8941;BME280;4505;43.406;23.226;2024-03-29T04:44:23;99810.97;;;12.98;100.00
8941;BME280;4505;43.406;23.226;2024-03-29T04:46:50;99829.31;;;12.95;100.00
8941;BME280;4505;43.406;23.226;2024-03-29T04:49:18;99830.91;;;12.96;100.00
8941;BME280;4505;43.406;23.226;2024-03-29T04:51:50;99833.56;;;13.13;100.00
8941;BME280;4505;43.406;23.226;2024-03-29T04:54:19;99836.63;;;13.21;100.00
8941;BME280;4505;43.406;23.226;2024-03-29T04:56:46;99844.47;;;13.28;100.00
8941;BME280;4505;43.406;23.226;2024-03-29T04:59:14;99846.44;;;13.37;100.00
8941;BME280;4505;43.406;23.226;2024-03-29T05:01:45;99851.91;;;13.69;100.00
8941;BME280;4505;43.406;23.226;2024-03-29T05:04:15;99852.59;;;13.59;100.00
8941;BME280;4505;43.406;23.226;2024-03-29T05:06:44;99864.41;;;13.68;100.00
8941;BME280;4505;43.406;23.226;2024-03-29T05:09:10;99844.34;;;13.87;100.00
8941;BME280;4505;43.406;23.226;2024-03-29T05:11:38;99848.16;;;13.91;100.00
8941;BME280;4505;43.406;23.226;2024-03-29T05:14:04;99852.31;;;13.82;100.00
8941;BME280;4505;43.406;23.226;2024-03-29T05:16:33;99852.63;;;14.12;100.00
8941;BME280;4505;43.406;23.226;2024-03-29T05:18:59;99863.31;;;14.39;100.00
8941;BME280;4505;43.406;23.226;2024-03-29T05:21:26;99862.91;;;14.52;100.00
8941;BME280;4505;43.406;23.226;2024-03-29T05:23:52;99856.28;;;14.60;100.00
8941;BME280;4505;43.406;23.226;2024-03-29T05:26:19;99857.72;;;14.72;100.00
8941;BME280;4505;43.406;23.226;2024-03-29T05:28:45;99862.88;;;14.84;100.00
8941;BME280;4505;43.406;23.226;2024-03-29T05:31:13;99868.56;;;14.92;100.00
8941;BME280;4505;43.406;23.226;2024-03-29T05:33:42;99873.03;;;14.82;100.00
8941;BME280;4505;43.406;23.226;2024-03-29T05:36:10;99879.97;;;14.83;100.00
8941;BME280;4505;43.406;23.226;2024-03-29T05:38:38;99877.94;;;14.95;100.00
8941;BME280;4505;43.406;23.226;2024-03-29T05:41:04;99871.16;;;15.19;100.00
8941;BME280;4505;43.406;23.226;2024-03-29T05:43:31;99876.75;;;15.17;93.58
8941;BME280;4505;43.406;23.226;2024-03-29T05:45:58;99876.38;;;15.40;88.71
8941;BME280;4505;43.406;23.226;2024-03-29T05:48:25;99885.47;;;15.39;89.09
8941;BME280;4505;43.406;23.226;2024-03-29T05:50:53;99883.94;;;15.53;92.21
8941;BME280;4505;43.406;23.226;2024-03-29T05:53:20;99881.81;;;15.60;87.39
8941;BME280;4505;43.406;23.226;2024-03-29T05:55:46;99870.66;;;15.84;86.10
8941;BME280;4505;43.406;23.226;2024-03-29T05:58:13;99869.88;;;15.98;85.64
8941;BME280;4505;43.406;23.226;2024-03-29T06:00:42;99875.28;;;16.08;82.16
8941;BME280;4505;43.406;23.226;2024-03-29T06:03:09;99882.00;;;16.26;79.80
8941;BME280;4505;43.406;23.226;2024-03-29T06:05:35;99875.56;;;16.32;85.00
8941;BME280;4505;43.406;23.226;2024-03-29T06:08:03;99876.41;;;16.37;88.89
8941;BME280;4505;43.406;23.226;2024-03-29T06:10:30;99885.25;;;16.28;90.97
8941;BME280;4505;43.406;23.226;2024-03-29T06:12:57;99883.38;;;16.38;91.64
8941;BME280;4505;43.406;23.226;2024-03-29T06:15:31;99887.16;;;16.72;92.88
8941;BME280;4505;43.406;23.226;2024-03-29T06:18:15;99890.38;;;17.04;88.91
8941;BME280;4505;43.406;23.226;2024-03-29T06:20:43;99883.38;;;17.13;88.79
8941;BME280;4505;43.406;23.226;2024-03-29T06:23:11;99885.75;;;17.25;88.28
8941;BME280;4505;43.406;23.226;2024-03-29T06:25:38;99882.25;;;17.30;87.29
8941;BME280;4505;43.406;23.226;2024-03-29T06:28:05;99876.06;;;17.39;83.87
8941;BME280;4505;43.406;23.226;2024-03-29T06:30:32;99883.03;;;17.40;72.72
8941;BME280;4505;43.406;23.226;2024-03-29T06:32:58;99884.09;;;17.54;70.71
8941;BME280;4505;43.406;23.226;2024-03-29T06:35:27;99878.16;;;17.62;71.03
8941;BME280;4505;43.406;23.226;2024-03-29T06:37:54;99875.94;;;17.79;70.29
8941;BME280;4505;43.406;23.226;2024-03-29T06:40:22;99877.84;;;17.79;68.89
8941;BME280;4505;43.406;23.226;2024-03-29T06:42:48;99882.97;;;17.70;72.07
8941;BME280;4505;43.406;23.226;2024-03-29T06:45:15;99882.50;;;18.07;69.52
8941;BME280;4505;43.406;23.226;2024-03-29T06:47:41;99882.69;;;18.25;67.58
8941;BME280;4505;43.406;23.226;2024-03-29T06:50:08;99888.75;;;18.46;63.68
8941;BME280;4505;43.406;23.226;2024-03-29T06:52:34;99890.50;;;18.94;62.67
8941;BME280;4505;43.406;23.226;2024-03-29T06:55:01;99896.09;;;19.26;61.31
8941;BME280;4505;43.406;23.226;2024-03-29T06:57:30;99893.38;;;19.78;58.24
8941;BME280;4505;43.406;23.226;2024-03-29T06:59:57;99886.47;;;20.15;54.68
8941;BME280;4505;43.406;23.226;2024-03-29T07:02:23;99888.19;;;20.43;50.02
8941;BME280;4505;43.406;23.226;2024-03-29T07:04:50;99897.25;;;20.84;50.70
8941;BME280;4505;43.406;23.226;2024-03-29T07:07:16;99895.72;;;21.10;46.31
8941;BME280;4505;43.406;23.226;2024-03-29T07:09:43;99902.50;;;21.40;44.45
8941;BME280;4505;43.406;23.226;2024-03-29T07:12:09;99903.09;;;21.64;44.22
8941;BME280;4505;43.406;23.226;2024-03-29T07:14:37;99900.13;;;21.79;45.22
8941;BME280;4505;43.406;23.226;2024-03-29T07:17:04;99903.09;;;21.91;45.70
8941;BME280;4505;43.406;23.226;2024-03-29T07:19:30;99902.50;;;21.94;45.37
8941;BME280;4505;43.406;23.226;2024-03-29T07:21:57;99905.09;;;22.12;43.96
8941;BME280;4505;43.406;23.226;2024-03-29T07:24:23;99903.00;;;22.09;44.06
8941;BME280;4505;43.406;23.226;2024-03-29T07:26:52;99894.09;;;22.31;43.13
8941;BME280;4505;43.406;23.226;2024-03-29T07:29:18;99896.34;;;22.51;42.45
8941;BME280;4505;43.406;23.226;2024-03-29T07:31:46;99892.13;;;22.58;41.05
8941;BME280;4505;43.406;23.226;2024-03-29T07:34:13;99888.25;;;22.73;40.54
8941;BME280;4505;43.406;23.226;2024-03-29T07:36:40;99894.50;;;22.74;40.45
8941;BME280;4505;43.406;23.226;2024-03-29T07:39:07;99890.53;;;22.57;40.16
8941;BME280;4505;43.406;23.226;2024-03-29T07:41:33;99894.66;;;22.77;39.99
8941;BME280;4505;43.406;23.226;2024-03-29T07:44:00;99892.56;;;22.74;39.44
8941;BME280;4505;43.406;23.226;2024-03-29T07:46:28;99895.53;;;22.86;39.01
8941;BME280;4505;43.406;23.226;2024-03-29T07:48:57;99902.78;;;22.99;39.00
8941;BME280;4505;43.406;23.226;2024-03-29T07:51:23;99897.88;;;23.10;38.12
8941;BME280;4505;43.406;23.226;2024-03-29T07:53:50;99896.41;;;23.26;38.40
8941;BME280;4505;43.406;23.226;2024-03-29T07:56:17;99897.28;;;23.43;37.14
8941;BME280;4505;43.406;23.226;2024-03-29T07:58:43;99905.91;;;23.45;36.90
8941;BME280;4505;43.406;23.226;2024-03-29T08:01:10;99900.97;;;23.56;36.66
8941;BME280;4505;43.406;23.226;2024-03-29T08:03:36;99899.09;;;23.56;36.35
8941;BME280;4505;43.406;23.226;2024-03-29T08:06:04;99905.31;;;23.65;34.87
8941;BME280;4505;43.406;23.226;2024-03-29T08:08:31;99895.50;;;23.86;34.58
8941;BME280;4505;43.406;23.226;2024-03-29T08:10:58;99891.75;;;24.05;34.02
8941;BME280;4505;43.406;23.226;2024-03-29T08:13:24;99895.25;;;24.39;34.15
8941;BME280;4505;43.406;23.226;2024-03-29T08:15:55;99885.06;;;24.53;33.19
8941;BME280;4505;43.406;23.226;2024-03-29T08:18:22;99886.16;;;24.61;32.79
8941;BME280;4505;43.406;23.226;2024-03-29T08:20:49;99886.00;;;24.32;33.31
8941;BME280;4505;43.406;23.226;2024-03-29T08:23:17;99885.53;;;24.47;32.78
8941;BME280;4505;43.406;23.226;2024-03-29T08:25:43;99878.66;;;24.24;32.88
8941;BME280;4505;43.406;23.226;2024-03-29T08:28:10;99884.91;;;24.50;33.40
8941;BME280;4505;43.406;23.226;2024-03-29T08:30:36;99877.72;;;24.37;32.29
8941;BME280;4505;43.406;23.226;2024-03-29T08:33:05;99880.91;;;24.64;33.07
8941;BME280;4505;43.406;23.226;2024-03-29T08:35:32;99878.34;;;24.59;32.52
8941;BME280;4505;43.406;23.226;2024-03-29T08:37:59;99883.91;;;24.97;32.07
8941;BME280;4505;43.406;23.226;2024-03-29T08:40:28;99881.78;;;25.11;31.95
8941;BME280;4505;43.406;23.226;2024-03-29T08:42:56;99877.19;;;24.86;32.20
8941;BME280;4505;43.406;23.226;2024-03-29T08:45:23;99866.84;;;24.54;32.48
8941;BME280;4505;43.406;23.226;2024-03-29T08:47:49;99866.31;;;24.94;31.96
8941;BME280;4505;43.406;23.226;2024-03-29T08:50:16;99862.06;;;24.59;31.26
8941;BME280;4505;43.406;23.226;2024-03-29T08:52:44;99862.06;;;24.51;32.35
8941;BME280;4505;43.406;23.226;2024-03-29T08:55:10;99858.88;;;24.49;32.07
8941;BME280;4505;43.406;23.226;2024-03-29T08:57:38;99868.16;;;25.19;31.73
8941;BME280;4505;43.406;23.226;2024-03-29T09:00:05;99872.81;;;25.19;30.83
8941;BME280;4505;43.406;23.226;2024-03-29T09:02:33;99871.06;;;25.14;31.15
8941;BME280;4505;43.406;23.226;2024-03-29T09:04:59;99876.91;;;25.33;31.73
8941;BME280;4505;43.406;23.226;2024-03-29T09:07:26;99868.38;;;25.81;30.87
8941;BME280;4505;43.406;23.226;2024-03-29T09:09:53;99862.13;;;26.10;30.62
8941;BME280;4505;43.406;23.226;2024-03-29T09:12:19;99851.88;;;26.68;29.63
8941;BME280;4505;43.406;23.226;2024-03-29T09:14:47;99851.50;;;26.17;29.87
8941;BME280;4505;43.406;23.226;2024-03-29T09:17:14;99859.06;;;25.82;29.97
8941;BME280;4505;43.406;23.226;2024-03-29T09:19:40;99854.06;;;25.93;30.44
8941;BME280;4505;43.406;23.226;2024-03-29T09:22:07;99860.09;;;24.94;30.84
8941;BME280;4505;43.406;23.226;2024-03-29T09:24:33;99859.19;;;25.36;30.34
8941;BME280;4505;43.406;23.226;2024-03-29T09:27:00;99866.81;;;24.88;30.96
8941;BME280;4505;43.406;23.226;2024-03-29T09:29:27;99864.28;;;25.38;30.94
8941;BME280;4505;43.406;23.226;2024-03-29T09:31:55;99848.50;;;26.30;31.48
8941;BME280;4505;43.406;23.226;2024-03-29T09:34:21;99851.78;;;26.77;28.95
8941;BME280;4505;43.406;23.226;2024-03-29T09:36:48;99847.97;;;26.90;28.59
8941;BME280;4505;43.406;23.226;2024-03-29T09:39:15;99848.97;;;26.32;29.40
8941;BME280;4505;43.406;23.226;2024-03-29T09:41:42;99841.31;;;26.46;29.24
8941;BME280;4505;43.406;23.226;2024-03-29T09:44:10;99838.63;;;26.26;30.61
8941;BME280;4505;43.406;23.226;2024-03-29T09:46:37;99837.84;;;26.25;29.46
8941;BME280;4505;43.406;23.226;2024-03-29T09:49:06;99839.31;;;25.94;29.75
8941;BME280;4505;43.406;23.226;2024-03-29T09:51:35;99845.56;;;24.90;30.70
8941;BME280;4505;43.406;23.226;2024-03-29T09:54:12;99829.09;;;24.95;31.04
8941;BME280;4505;43.406;23.226;2024-03-29T09:56:46;99835.84;;;25.35;30.52
8941;BME280;4505;43.406;23.226;2024-03-29T09:59:15;99840.78;;;25.33;30.19
8941;BME280;4505;43.406;23.226;2024-03-29T10:01:47;99839.63;;;26.01;30.02
8941;BME280;4505;43.406;23.226;2024-03-29T10:04:16;99830.59;;;26.29;29.24
8941;BME280;4505;43.406;23.226;2024-03-29T10:06:54;99834.88;;;26.72;29.05
8941;BME280;4505;43.406;23.226;2024-03-29T10:09:23;99833.13;;;26.46;30.06
8941;BME280;4505;43.406;23.226;2024-03-29T10:11:57;99817.38;;;27.29;29.69
8941;BME280;4505;43.406;23.226;2024-03-29T10:14:26;99827.06;;;26.49;28.99
8941;BME280;4505;43.406;23.226;2024-03-29T10:16:53;99816.38;;;26.24;29.87
8941;BME280;4505;43.406;23.226;2024-03-29T10:19:24;99830.31;;;26.76;29.57
8941;BME280;4505;43.406;23.226;2024-03-29T10:22:04;99825.34;;;26.78;30.11
8941;BME280;4505;43.406;23.226;2024-03-29T10:24:34;99813.28;;;27.35;29.43
8941;BME280;4505;43.406;23.226;2024-03-29T10:27:04;99815.28;;;26.04;30.56
8941;BME280;4505;43.406;23.226;2024-03-29T10:29:31;99815.47;;;26.20;30.60
8941;BME280;4505;43.406;23.226;2024-03-29T10:42:24;99814.84;;;27.36;29.04
8941;BME280;4505;43.406;23.226;2024-03-29T10:45:17;99807.00;;;27.59;28.71
8941;BME280;4505;43.406;23.226;2024-03-29T10:48:22;99810.22;;;28.13;28.29
8941;BME280;4505;43.406;23.226;2024-03-29T10:51:20;99809.81;;;28.81;27.46
8941;BME280;4505;43.406;23.226;2024-03-29T10:54:37;99812.78;;;28.76;27.24
8941;BME280;4505;43.406;23.226;2024-03-29T10:57:47;99804.16;;;27.79;28.12
8941;BME280;4505;43.406;23.226;2024-03-29T11:00:33;99808.22;;;27.85;28.74
8941;BME280;4505;43.406;23.226;2024-03-29T11:03:32;99807.00;;;27.23;28.97
8941;BME280;4505;43.406;23.226;2024-03-29T11:06:32;99801.34;;;27.40;28.93
8941;BME280;4505;43.406;23.226;2024-03-29T11:12:50;99813.47;;;29.16;28.00
8941;BME280;4505;43.406;23.226;2024-03-29T11:18:51;99803.47;;;27.10;29.21
8941;BME280;4505;43.406;23.226;2024-03-29T11:21:36;99792.41;;;27.91;29.00
8941;BME280;4505;43.406;23.226;2024-03-29T11:27:23;99794.19;;;28.66;28.35
8941;BME280;4505;43.406;23.226;2024-03-29T11:30:22;99787.44;;;29.22;28.09
8941;BME280;4505;43.406;23.226;2024-03-29T11:36:17;99778.59;;;30.17;26.31
8941;BME280;4505;43.406;23.226;2024-03-29T11:39:05;99778.31;;;28.44;27.60
8941;BME280;4505;43.406;23.226;2024-03-29T11:42:05;99779.38;;;27.60;28.74
8941;BME280;4505;43.406;23.226;2024-03-29T11:45:33;99775.41;;;27.70;28.69
8941;BME280;4505;43.406;23.226;2024-03-29T11:51:17;99784.94;;;28.71;27.76
8941;BME280;4505;43.406;23.226;2024-03-29T11:54:11;99770.81;;;28.53;27.68
8941;BME280;4505;43.406;23.226;2024-03-29T11:57:16;99777.16;;;28.02;27.89
8941;BME280;4505;43.406;23.226;2024-03-29T12:09:19;99765.00;;;28.70;27.97
8941;BME280;4505;43.406;23.226;2024-03-29T12:15:08;99762.03;;;29.72;25.79
8941;BME280;4505;43.406;23.226;2024-03-29T12:30:45;99752.47;;;29.31;26.67
8941;BME280;4505;43.406;23.226;2024-03-29T12:36:43;99740.56;;;30.31;25.36
8941;BME280;4505;43.406;23.226;2024-03-29T12:39:31;99746.69;;;30.66;25.36
8941;BME280;4505;43.406;23.226;2024-03-29T12:41:59;99745.94;;;30.47;25.58
8941;BME280;4505;43.406;23.226;2024-03-29T12:44:26;99741.16;;;30.21;25.50
8941;BME280;4505;43.406;23.226;2024-03-29T12:46:54;99742.78;;;29.18;26.37
8941;BME280;4505;43.406;23.226;2024-03-29T12:49:20;99742.06;;;29.72;26.06
8941;BME280;4505;43.406;23.226;2024-03-29T12:51:55;99743.09;;;29.83;26.11
8941;BME280;4505;43.406;23.226;2024-03-29T12:54:22;99736.66;;;30.13;25.99
8941;BME280;4505;43.406;23.226;2024-03-29T12:56:48;99730.44;;;29.59;26.32
8941;BME280;4505;43.406;23.226;2024-03-29T12:59:15;99730.66;;;30.46;26.10
8941;BME280;4505;43.406;23.226;2024-03-29T13:01:42;99723.13;;;30.62;25.14
8941;BME280;4505;43.406;23.226;2024-03-29T13:04:11;99734.78;;;30.17;25.45
8941;BME280;4505;43.406;23.226;2024-03-29T13:06:38;99724.88;;;30.51;25.56
8941;BME280;4505;43.406;23.226;2024-03-29T13:09:05;99723.63;;;30.26;25.82
8941;BME280;4505;43.406;23.226;2024-03-29T13:11:33;99725.44;;;30.83;25.11
8941;BME280;4505;43.406;23.226;2024-03-29T13:13:59;99715.00;;;30.92;25.17
8941;BME280;4505;43.406;23.226;2024-03-29T13:16:26;99711.81;;;30.22;25.49
8941;BME280;4505;43.406;23.226;2024-03-29T13:18:52;99722.34;;;29.47;26.37
8941;BME280;4505;43.406;23.226;2024-03-29T13:21:20;99719.47;;;29.40;26.92
8941;BME280;4505;43.406;23.226;2024-03-29T13:23:47;99710.69;;;28.84;27.49
8941;BME280;4505;43.406;23.226;2024-03-29T13:26:13;99722.75;;;29.65;26.74
8941;BME280;4505;43.406;23.226;2024-03-29T13:28:40;99719.16;;;29.45;26.77
8941;BME280;4505;43.406;23.226;2024-03-29T13:31:07;99720.69;;;28.18;27.40
8941;BME280;4505;43.406;23.226;2024-03-29T13:33:33;99715.81;;;27.72;28.30
8941;BME280;4505;43.406;23.226;2024-03-29T13:36:00;99721.66;;;27.98;28.30
8941;BME280;4505;43.406;23.226;2024-03-29T13:38:28;99719.66;;;28.11;27.90
8941;BME280;4505;43.406;23.226;2024-03-29T13:40:55;99718.34;;;29.25;27.12
8941;BME280;4505;43.406;23.226;2024-03-29T13:43:22;99720.00;;;29.84;26.50
8941;BME280;4505;43.406;23.226;2024-03-29T13:45:49;99718.34;;;29.98;26.40
8941;BME280;4505;43.406;23.226;2024-03-29T13:48:16;99716.16;;;30.45;26.13
8941;BME280;4505;43.406;23.226;2024-03-29T13:50:43;99713.91;;;30.96;25.67
8941;BME280;4505;43.406;23.226;2024-03-29T13:53:09;99720.47;;;31.40;25.61
8941;BME280;4505;43.406;23.226;2024-03-29T13:55:37;99714.44;;;31.05;25.63
8941;BME280;4505;43.406;23.226;2024-03-29T13:58:04;99711.41;;;29.12;27.44
8941;BME280;4505;43.406;23.226;2024-03-29T14:00:30;99709.56;;;29.35;27.56
8941;BME280;4505;43.406;23.226;2024-03-29T14:03:04;99714.13;;;28.81;27.76
8941;BME280;4505;43.406;23.226;2024-03-29T14:05:31;99702.69;;;29.42;27.38
8941;BME280;4505;43.406;23.226;2024-03-29T14:07:58;99706.41;;;29.68;27.30
8941;BME280;4505;43.406;23.226;2024-03-29T14:10:26;99715.47;;;28.29;28.55
8941;BME280;4505;43.406;23.226;2024-03-29T14:12:54;99709.00;;;28.49;28.34